Time;durP1;ratioP1;P1;durP2;ratioP2;P2;SDS_P1;SDS_P2;PMS_P1;PMS_P2;Temp;Humidity;BMP_temperature;BMP_pressure;BME280_temperature;BME280_humidity;BME280_pressure;Samples;Min_cycle;Max_cycle;Signal;HPM_P1;HPM_P2
2024/03/28 00:01:36;;;;;;;20.88;7.00;;;13.80;99.90;;;;;;4958722;28;20060;-70
2024/03/28 00:04:03;;;;;;;16.67;6.90;;;13.90;99.90;;;;;;4974636;28;20091;-71
2024/03/28 00:06:29;;;;;;;16.92;8.32;;;13.90;99.90;;;;;;4977892;28;20038;-73
2024/03/28 00:09:15;;;;;;;16.15;6.57;;;13.90;99.90;;;;;;4973351;28;20038;-73
2024/03/28 00:11:42;;;;;;;14.63;6.50;;;13.90;99.90;;;;;;4979831;28;20030;-73
2024/03/28 00:14:08;;;;;;;19.85;6.78;;;14.00;99.90;;;;;;4983793;28;20046;-69
2024/03/28 00:16:34;;;;;;;14.60;6.15;;;14.10;99.90;;;;;;4983214;28;20179;-69
2024/03/28 00:19:01;;;;;;;12.68;6.55;;;14.00;99.90;;;;;;4993282;28;20113;-70
2024/03/28 00:21:28;;;;;;;18.13;6.85;;;14.00;99.90;;;;;;4986067;28;20030;-70
2024/03/28 00:23:54;;;;;;;17.23;6.95;;;14.00;99.90;;;;;;4984464;28;20388;-71
2024/03/28 00:26:20;;;;;;;17.08;6.20;;;14.00;99.90;;;;;;4983813;28;20381;-73
2024/03/28 00:28:47;;;;;;;18.95;5.68;;;14.00;99.90;;;;;;4973169;28;20399;-74
2024/03/28 00:31:14;;;;;;;11.95;6.75;;;14.00;99.90;;;;;;4988744;28;20423;-70
2024/03/28 00:33:40;;;;;;;17.20;6.50;;;14.00;99.90;;;;;;4979517;28;20404;-72
2024/03/28 00:36:07;;;;;;;17.98;6.78;;;14.00;99.90;;;;;;4996940;28;20034;-73
2024/03/28 00:38:33;;;;;;;11.25;6.00;;;14.00;99.90;;;;;;4977427;28;20497;-73
2024/03/28 00:41:01;;;;;;;13.60;5.20;;;14.00;99.90;;;;;;4982390;28;20062;-71
2024/03/28 00:43:27;;;;;;;15.48;5.63;;;14.00;99.90;;;;;;4971886;28;20109;-70
2024/03/28 00:45:55;;;;;;;13.73;5.70;;;14.10;99.90;;;;;;4964999;28;20120;-69
2024/03/28 00:48:22;;;;;;;17.00;5.68;;;14.10;99.90;;;;;;4972859;28;20389;-73
2024/03/28 00:51:06;;;;;;;23.45;5.97;;;14.10;99.90;;;;;;4972545;28;20427;-72
2024/03/28 00:53:32;;;;;;;14.55;5.63;;;14.10;99.90;;;;;;4981807;28;20038;-70
2024/03/28 00:55:59;;;;;;;18.92;5.60;;;14.10;99.90;;;;;;4988577;28;20439;-72
2024/03/28 00:58:26;;;;;;;14.32;4.65;;;14.10;99.90;;;;;;4982392;28;20045;-72
2024/03/28 01:00:52;;;;;;;11.43;4.90;;;14.00;99.90;;;;;;4985014;28;20034;-71
2024/03/28 01:03:18;;;;;;;13.32;5.50;;;14.00;99.90;;;;;;4990717;28;20400;-71
2024/03/28 01:05:56;;;;;;;9.82;4.70;;;14.10;99.90;;;;;;4973261;28;20050;-74
2024/03/28 01:08:22;;;;;;;15.15;6.25;;;14.00;99.90;;;;;;4981070;28;20049;-75
2024/03/28 01:10:48;;;;;;;16.15;5.47;;;13.90;99.90;;;;;;4973750;28;20038;-71
2024/03/28 01:13:14;;;;;;;12.40;5.80;;;13.90;99.90;;;;;;4972637;28;20049;-71
2024/03/28 01:15:41;;;;;;;19.40;6.10;;;13.90;99.90;;;;;;4979242;28;20026;-70
2024/03/28 01:18:09;;;;;;;12.88;5.22;;;13.80;99.90;;;;;;4972467;28;20043;-71
2024/03/28 01:20:35;;;;;;;10.80;5.53;;;13.90;99.90;;;;;;4968505;28;20481;-69
2024/03/28 01:23:02;;;;;;;18.13;5.20;;;13.90;99.90;;;;;;4986159;28;20076;-70
2024/03/28 01:25:29;;;;;;;15.63;5.47;;;13.80;99.90;;;;;;4964349;28;20035;-72
2024/03/28 01:27:55;;;;;;;14.95;5.18;;;13.80;99.90;;;;;;4983609;28;20053;-72
2024/03/28 01:30:22;;;;;;;13.38;5.03;;;13.80;99.90;;;;;;4972390;28;20362;-70
2024/03/28 01:32:48;;;;;;;16.42;5.75;;;13.80;99.90;;;;;;4982883;28;20037;-72
2024/03/28 01:35:15;;;;;;;12.40;5.05;;;13.80;99.90;;;;;;4969568;28;20031;-72
2024/03/28 01:37:41;;;;;;;15.82;5.25;;;13.80;99.90;;;;;;4974211;28;20034;-72
2024/03/28 01:40:09;;;;;;;12.20;5.35;;;13.80;99.90;;;;;;4971950;28;20030;-73
2024/03/28 01:42:35;;;;;;;11.25;4.80;;;13.90;99.90;;;;;;4983292;28;20439;-68
2024/03/28 01:45:02;;;;;;;8.25;5.13;;;13.90;99.90;;;;;;4973588;28;20408;-74
2024/03/28 01:47:29;;;;;;;8.70;4.70;;;13.70;99.90;;;;;;4971857;28;20042;-71
2024/03/28 01:49:56;;;;;;;13.63;5.05;;;13.70;99.90;;;;;;4972438;28;20150;-70
2024/03/28 01:52:23;;;;;;;10.77;5.43;;;13.80;99.90;;;;;;4956522;28;20072;-69
2024/03/28 01:54:50;;;;;;;12.38;4.78;;;13.80;99.90;;;;;;4971732;28;20163;-73
2024/03/28 01:57:17;;;;;;;12.80;4.88;;;13.70;99.90;;;;;;4971383;28;20037;-70
2024/03/28 01:59:44;;;;;;;13.00;5.47;;;13.70;99.90;;;;;;4978411;28;20041;-70
2024/03/28 02:02:12;;;;;;;15.32;5.43;;;13.70;99.90;;;;;;4977647;28;20334;-70
2024/03/28 02:04:38;;;;;;;12.45;5.72;;;13.70;99.90;;;;;;4971540;28;20041;-69
2024/03/28 02:07:05;;;;;;;12.93;4.72;;;13.70;99.90;;;;;;4972570;28;20054;-69
2024/03/28 02:09:31;;;;;;;12.30;5.00;;;13.70;99.90;;;;;;4971349;28;20370;-72
2024/03/28 02:11:59;;;;;;;10.57;5.55;;;13.80;99.90;;;;;;4972332;28;20038;-74
2024/03/28 02:14:25;;;;;;;13.02;5.13;;;13.80;99.90;;;;;;4990484;28;20026;-72
2024/03/28 02:16:51;;;;;;;10.75;5.45;;;13.80;99.90;;;;;;4975525;28;20503;-71
2024/03/28 02:19:17;;;;;;;10.25;5.00;;;13.80;99.90;;;;;;4971360;28;20465;-73
2024/03/28 02:21:45;;;;;;;14.80;5.05;;;13.80;99.90;;;;;;4981932;28;20040;-71
2024/03/28 02:24:12;;;;;;;12.20;6.30;;;13.80;99.90;;;;;;4982829;28;20358;-71
2024/03/28 02:26:38;;;;;;;14.70;4.88;;;13.80;99.90;;;;;;4971179;28;20038;-71
2024/03/28 02:29:05;;;;;;;13.23;5.45;;;13.90;99.90;;;;;;4971299;28;20068;-70
2024/03/28 02:31:32;;;;;;;16.00;5.25;;;13.80;99.90;;;;;;4971484;28;20033;-69
2024/03/28 02:33:58;;;;;;;11.65;5.05;;;13.80;99.90;;;;;;4971465;28;20042;-71
2024/03/28 02:36:24;;;;;;;17.92;7.70;;;13.80;99.90;;;;;;4971077;28;20516;-68
2024/03/28 02:38:51;;;;;;;14.63;8.32;;;13.60;99.90;;;;;;4955494;28;20039;-72
2024/03/28 02:41:20;;;;;;;16.83;8.13;;;13.40;99.90;;;;;;4955203;28;20413;-74
2024/03/28 02:43:47;;;;;;;14.68;7.25;;;13.40;99.90;;;;;;4971804;28;20045;-73
2024/03/28 02:46:13;;;;;;;8.35;5.70;;;13.30;99.90;;;;;;4954963;28;20111;-70
2024/03/28 02:48:40;;;;;;;8.20;4.85;;;13.20;99.90;;;;;;4971492;28;20030;-71
2024/03/28 02:51:06;;;;;;;15.95;5.57;;;13.00;99.90;;;;;;4970837;28;20046;-70
2024/03/28 02:53:33;;;;;;;11.45;6.65;;;13.00;99.90;;;;;;4948742;28;20069;-72
2024/03/28 02:55:59;;;;;;;11.15;5.97;;;13.00;99.90;;;;;;4973545;28;20057;-73
2024/03/28 02:58:26;;;;;;;11.27;6.05;;;13.00;99.90;;;;;;4971617;28;20061;-70
2024/03/28 03:00:54;;;;;;;8.25;6.10;;;13.00;99.90;;;;;;4973500;28;20047;-69
2024/03/28 03:03:20;;;;;;;10.50;7.13;;;12.90;99.90;;;;;;4979070;28;20034;-70
2024/03/28 03:05:51;;;;;;;9.57;6.28;;;12.60;99.90;;;;;;4973940;28;20034;-70
2024/03/28 03:08:17;;;;;;;;;;;12.70;99.90;;;;;;4976461;28;20038;-72
2024/03/28 03:10:43;;;;;;;5.40;3.35;;;13.10;99.90;;;;;;4973718;28;19918;-70
2024/03/28 03:13:10;;;;;;;3.50;2.72;;;13.50;99.90;;;;;;4965548;28;20087;-73
2024/03/28 03:15:36;;;;;;;5.75;3.50;;;13.80;99.90;;;;;;4979061;28;20061;-70
2024/03/28 03:18:02;;;;;;;5.05;3.63;;;13.80;99.90;;;;;;4980920;28;20089;-72
2024/03/28 03:20:29;;;;;;;6.90;4.32;;;13.50;99.90;;;;;;4976063;28;20034;-71
2024/03/28 03:23:04;;;;;;;12.35;4.80;;;13.40;99.90;;;;;;4982759;28;20030;-69
2024/03/28 03:25:49;;;;;;;8.27;5.95;;;13.30;99.90;;;;;;4974796;28;20050;-70
2024/03/28 03:36:29;;;;;;;11.05;5.15;;;12.90;99.90;;;;;;4974212;28;20030;-72
2024/03/28 03:38:56;;;;;;;9.10;4.88;;;12.80;99.90;;;;;;4973997;28;20049;-71
2024/03/28 03:41:22;;;;;;;9.75;5.07;;;12.80;99.90;;;;;;4969879;28;20079;-70
2024/03/28 03:43:48;;;;;;;7.55;4.93;;;12.80;99.90;;;;;;4966534;28;20442;-71
2024/03/28 03:46:14;;;;;;;9.40;5.32;;;12.70;99.90;;;;;;4990003;28;20446;-71
2024/03/28 03:48:40;;;;;;;6.47;4.45;;;12.70;99.90;;;;;;4973694;28;20034;-73
2024/03/28 03:51:07;;;;;;;7.18;4.80;;;12.70;99.90;;;;;;4975646;28;20107;-72
2024/03/28 03:53:33;;;;;;;8.27;4.95;;;12.70;99.90;;;;;;4967832;28;20068;-71
2024/03/28 03:55:59;;;;;;;10.65;4.65;;;12.70;99.90;;;;;;4973263;28;20034;-73
2024/03/28 03:58:26;;;;;;;9.38;5.35;;;12.80;99.90;;;;;;4973661;28;20087;-72
2024/03/28 04:00:52;;;;;;;9.25;5.20;;;12.70;99.90;;;;;;4982857;28;20042;-71
2024/03/28 04:03:18;;;;;;;7.55;4.40;;;12.70;99.90;;;;;;4977010;28;20042;-69
2024/03/28 04:05:45;;;;;;;10.20;4.45;;;12.70;99.90;;;;;;4961220;28;20515;-71
2024/03/28 04:08:12;;;;;;;9.93;4.85;;;12.70;99.90;;;;;;4978196;28;20046;-72
2024/03/28 04:10:38;;;;;;;9.65;5.70;;;12.60;99.90;;;;;;4974110;28;20027;-71
2024/03/28 04:13:04;;;;;;;11.35;4.53;;;12.60;99.90;;;;;;4980780;28;20426;-70
2024/03/28 04:15:31;;;;;;;6.93;4.72;;;12.60;99.90;;;;;;4978604;28;20059;-72
2024/03/28 04:17:57;;;;;;;8.35;4.47;;;12.50;99.90;;;;;;4957033;28;20444;-70
2024/03/28 04:20:23;;;;;;;7.32;4.40;;;12.50;99.90;;;;;;4983717;28;20426;-69
2024/03/28 04:22:51;;;;;;;6.47;4.45;;;12.50;99.90;;;;;;4976878;28;20039;-69
2024/03/28 04:25:17;;;;;;;8.75;5.07;;;12.50;99.90;;;;;;5000926;28;20042;-70
2024/03/28 04:27:44;;;;;;;7.75;4.10;;;12.60;99.90;;;;;;4985484;28;20046;-71
2024/03/28 04:30:11;;;;;;;8.20;4.22;;;12.50;99.90;;;;;;4975530;28;20038;-70
2024/03/28 04:32:37;;;;;;;7.10;3.80;;;12.40;99.90;;;;;;4982187;28;20041;-72
2024/03/28 04:35:04;;;;;;;6.97;4.30;;;12.60;99.90;;;;;;4976209;28;20493;-70
2024/03/28 04:37:30;;;;;;;5.22;3.97;;;12.70;99.90;;;;;;4972793;28;20054;-71
2024/03/28 04:39:56;;;;;;;6.75;3.83;;;12.50;99.90;;;;;;4961013;28;20034;-72
2024/03/28 04:42:23;;;;;;;6.82;4.72;;;12.40;99.90;;;;;;4972888;28;20031;-73
2024/03/28 04:44:50;;;;;;;9.35;5.03;;;12.40;99.90;;;;;;4972818;28;20060;-70
2024/03/28 04:47:16;;;;;;;8.93;4.30;;;12.30;99.90;;;;;;4972499;28;20046;-73
2024/03/28 04:49:43;;;;;;;7.22;4.30;;;12.20;99.90;;;;;;4957104;28;20091;-71
2024/03/28 04:52:09;;;;;;;7.72;4.47;;;12.20;99.90;;;;;;4967342;28;20054;-72
2024/03/28 04:54:35;;;;;;;7.88;5.25;;;12.20;99.90;;;;;;4977609;28;20031;-72
2024/03/28 04:57:02;;;;;;;8.32;4.85;;;12.20;99.90;;;;;;5026617;28;20047;-72
2024/03/28 04:59:28;;;;;;;6.90;4.57;;;12.40;99.90;;;;;;4983458;28;20030;-71
2024/03/28 05:01:55;;;;;;;5.95;3.78;;;12.60;99.90;;;;;;4982028;28;20030;-71
2024/03/28 05:04:22;;;;;;;6.50;3.78;;;12.70;99.90;;;;;;4973711;28;20495;-74
2024/03/28 05:06:48;;;;;;;5.38;3.65;;;12.80;99.90;;;;;;4972368;28;20038;-71
2024/03/28 05:09:15;;;;;;;7.40;4.18;;;12.80;99.90;;;;;;4972496;28;20109;-69
2024/03/28 05:11:41;;;;;;;6.43;4.75;;;12.80;99.90;;;;;;4965421;28;20492;-69
2024/03/28 05:14:07;;;;;;;8.77;4.25;;;12.80;99.90;;;;;;4972515;28;20049;-71
2024/03/28 05:16:34;;;;;;;5.90;4.00;;;12.80;99.90;;;;;;4972337;28;20390;-72
2024/03/28 05:19:00;;;;;;;8.20;4.22;;;12.80;99.90;;;;;;4972684;28;20045;-72
2024/03/28 05:21:26;;;;;;;9.05;4.50;;;12.70;99.90;;;;;;4985056;28;20423;-71
2024/03/28 05:23:54;;;;;;;13.73;4.57;;;12.80;99.90;;;;;;4972592;28;20041;-70
2024/03/28 05:26:20;;;;;;;5.50;3.50;;;12.90;99.90;;;;;;4981621;28;20079;-69
2024/03/28 05:28:47;;;;;;;10.60;4.10;;;12.90;99.90;;;;;;4972558;28;20080;-70
2024/03/28 05:31:16;;;;;;;10.23;4.32;;;13.10;99.90;;;;;;4974559;28;20038;-70
2024/03/28 05:33:42;;;;;;;7.88;4.00;;;13.10;99.90;;;;;;4978461;28;20034;-68
2024/03/28 05:36:13;;;;;;;6.32;4.20;;;13.20;99.90;;;;;;4974101;28;20062;-69
2024/03/28 05:38:40;;;;;;;10.30;3.42;;;13.10;99.90;;;;;;4982045;28;20038;-71
2024/03/28 05:41:06;;;;;;;12.35;3.13;;;13.30;99.90;;;;;;4972510;28;20381;-71
2024/03/28 05:43:32;;;;;;;5.35;3.55;;;13.80;93.50;;;;;;4975319;28;20401;-71
2024/03/28 05:45:59;;;;;;;11.48;3.88;;;13.80;99.90;;;;;;4976322;28;20034;-69
2024/03/28 05:48:25;;;;;;;13.90;3.88;;;13.60;99.90;;;;;;4980635;28;20034;-71
2024/03/28 05:50:52;;;;;;;6.95;3.80;;;13.80;99.90;;;;;;4982367;28;20515;-71
2024/03/28 05:53:19;;;;;;;8.50;3.88;;;13.80;99.90;;;;;;4975149;28;20058;-73
2024/03/28 05:55:45;;;;;;;8.55;4.30;;;13.70;99.90;;;;;;4977285;28;20555;-73
2024/03/28 05:58:12;;;;;;;6.85;4.15;;;13.70;99.90;;;;;;4971694;28;20034;-71
2024/03/28 06:00:38;;;;;;;8.90;3.42;;;13.60;99.90;;;;;;4972071;28;20037;-70
2024/03/28 06:03:04;;;;;;;9.60;4.40;;;13.60;99.90;;;;;;4968815;28;20034;-71
2024/03/28 06:05:31;;;;;;;12.65;3.20;;;13.70;99.90;;;;;;4985527;28;20042;-71
2024/03/28 06:07:58;;;;;;;8.82;3.33;;;13.90;93.50;;;;;;4979565;28;20034;-72
2024/03/28 06:10:24;;;;;;;6.40;3.08;;;14.30;92.60;;;;;;4973937;28;20038;-73
2024/03/28 06:12:51;;;;;;;9.07;5.50;;;14.40;90.50;;;;;;4973228;28;20381;-70
2024/03/28 06:15:17;;;;;;;20.65;9.27;;;14.60;96.00;;;;;;4984009;28;20445;-69
2024/03/28 06:17:43;;;;;;;13.13;6.28;;;14.90;85.50;;;;;;4965421;28;20038;-70
2024/03/28 06:20:11;;;;;;;19.35;11.07;;;14.80;90.40;;;;;;4972825;28;20121;-69
2024/03/28 06:22:38;;;;;;;50.25;28.73;;;14.80;92.60;;;;;;4974076;28;20587;-69
2024/03/28 06:25:06;;;;;;;24.65;15.00;;;14.80;93.90;;;;;;4969890;28;20045;-69
2024/03/28 06:27:32;;;;;;;13.93;7.93;;;14.80;94.90;;;;;;4976595;28;20055;-70
2024/03/28 06:29:59;;;;;;;130.55;68.22;;;14.90;94.20;;;;;;4982477;28;20053;-70
2024/03/28 06:32:29;;;;;;;27.88;16.83;;;15.00;94.30;;;;;;4967635;28;20034;-70
2024/03/28 06:34:58;;;;;;;14.15;6.78;;;15.00;94.00;;;;;;4983380;28;20037;-70
2024/03/28 06:37:25;;;;;;;12.27;4.90;;;15.10;93.80;;;;;;4970426;28;20478;-68
2024/03/28 06:39:54;;;;;;;13.93;4.22;;;15.20;94.90;;;;;;4967830;28;20434;-71
2024/03/28 06:42:20;;;;;;;7.80;3.97;;;15.10;94.70;;;;;;4974644;28;20026;-71
2024/03/28 06:44:50;;;;;;;6.65;2.88;;;15.00;94.20;;;;;;4974756;28;20042;-69
2024/03/28 06:47:17;;;;;;;9.35;3.95;;;15.00;94.80;;;;;;4974408;28;20038;-69
2024/03/28 06:49:43;;;;;;;28.25;12.85;;;15.00;94.20;;;;;;4974469;28;20500;-70
2024/03/28 06:52:10;;;;;;;27.67;13.65;;;15.20;93.10;;;;;;5052516;28;20050;-73
2024/03/28 06:54:36;;;;;;;14.07;6.35;;;15.30;91.80;;;;;;4967250;28;20035;-69
2024/03/28 06:57:04;;;;;;;6.10;3.53;;;15.20;91.60;;;;;;4976990;28;20038;-73
2024/03/28 06:59:32;;;;;;;13.45;3.45;;;15.30;90.90;;;;;;4979380;28;20031;-74
2024/03/28 07:01:58;;;;;;;9.20;3.17;;;15.40;90.20;;;;;;4973918;28;20072;-72
2024/03/28 07:04:25;;;;;;;9.73;2.70;;;15.40;88.40;;;;;;4992877;28;20041;-69
2024/03/28 07:06:51;;;;;;;10.15;3.63;;;15.50;87.90;;;;;;4965287;28;20096;-73
2024/03/28 07:09:17;;;;;;;8.57;2.88;;;15.50;81.90;;;;;;4976972;28;20046;-71
2024/03/28 07:11:45;;;;;;;12.07;3.90;;;15.60;91.10;;;;;;4974463;28;20390;-73
2024/03/28 07:14:12;;;;;;;10.55;3.80;;;15.60;93.80;;;;;;4958783;28;20103;-69
2024/03/28 07:16:41;;;;;;;9.13;3.42;;;15.50;94.40;;;;;;4973803;28;20484;-73
2024/03/28 07:19:07;;;;;;;8.35;3.47;;;15.50;94.50;;;;;;4974719;28;20362;-71
2024/03/28 07:21:33;;;;;;;13.82;3.90;;;15.60;93.90;;;;;;4979988;28;20034;-68
2024/03/28 07:23:59;;;;;;;9.20;3.35;;;15.60;93.20;;;;;;4980761;28;20042;-72
2024/03/28 07:26:26;;;;;;;9.95;3.17;;;15.70;93.50;;;;;;4986388;28;20034;-69
2024/03/28 07:28:52;;;;;;;8.65;3.60;;;15.70;93.50;;;;;;4974246;28;20035;-70
2024/03/28 07:31:18;;;;;;;13.50;3.30;;;15.60;93.00;;;;;;4986334;28;20031;-70
2024/03/28 07:33:45;;;;;;;9.95;3.60;;;15.60;92.70;;;;;;4974401;28;20038;-70
2024/03/28 07:36:11;;;;;;;6.70;3.40;;;15.70;93.10;;;;;;4961095;28;20047;-73
2024/03/28 07:38:38;;;;;;;10.63;3.80;;;15.90;93.30;;;;;;4967117;28;20045;-68
2024/03/28 07:41:04;;;;;;;7.50;3.67;;;15.90;92.60;;;;;;4972186;28;20038;-70
2024/03/28 07:43:31;;;;;;;8.23;3.15;;;16.00;93.10;;;;;;4986311;28;20042;-70
2024/03/28 07:46:04;;;;;;;9.30;2.97;;;15.90;92.80;;;;;;4969702;28;20039;-70
2024/03/28 07:48:33;;;;;;;13.88;2.95;;;15.90;93.50;;;;;;4985343;28;20034;-71
2024/03/28 07:51:00;;;;;;;9.18;3.47;;;16.10;93.70;;;;;;4974121;28;20432;-71
2024/03/28 07:53:32;;;;;;;7.80;2.88;;;16.10;92.90;;;;;;4973211;28;20042;-70
2024/03/28 07:56:01;;;;;;;16.08;3.30;;;16.20;92.70;;;;;;4973615;28;20041;-70
2024/03/28 07:58:27;;;;;;;10.35;3.42;;;16.20;90.90;;;;;;4977723;28;20030;-72
2024/03/28 08:01:02;;;;;;;7.28;2.90;;;16.20;90.50;;;;;;4992773;28;20038;-73
2024/03/28 08:03:33;;;;;;;10.15;3.10;;;16.30;90.20;;;;;;4992307;28;20520;-70
2024/03/28 08:05:59;;;;;;;;;;;16.60;83.60;;;;;;4979718;28;20428;-69
2024/03/28 08:08:25;;;;;;;8.18;2.95;;;16.60;81.90;;;;;;4973608;28;20274;-69
2024/03/28 08:10:52;;;;;;;5.53;2.45;;;16.70;82.50;;;;;;4973449;28;20042;-69
2024/03/28 08:13:18;;;;;;;4.95;3.05;;;16.80;78.90;;;;;;4992376;28;20496;-71
2024/03/28 08:15:44;;;;;;;9.40;3.00;;;16.80;77.40;;;;;;4990939;28;20448;-72
2024/03/28 08:18:11;;;;;;;8.45;3.25;;;16.90;76.70;;;;;;4980664;28;20082;-72
2024/03/28 08:20:37;;;;;;;10.25;3.10;;;17.00;76.90;;;;;;4973237;28;20393;-69
2024/03/28 08:23:04;;;;;;;8.15;2.30;;;17.10;76.90;;;;;;4996098;28;20376;-73
2024/03/28 08:25:30;;;;;;;7.28;2.42;;;17.30;77.70;;;;;;4984304;28;20087;-69
2024/03/28 08:27:58;;;;;;;13.25;3.05;;;17.40;75.30;;;;;;4973862;28;20443;-71
2024/03/28 08:30:24;;;;;;;10.70;2.70;;;17.30;75.50;;;;;;4972774;28;20047;-69
2024/03/28 08:32:51;;;;;;;11.77;3.45;;;17.40;75.90;;;;;;4971812;28;20039;-73
2024/03/28 08:35:18;;;;;;;6.57;2.50;;;17.50;74.60;;;;;;4973169;28;20032;-72
2024/03/28 08:37:45;;;;;;;7.30;2.88;;;17.60;74.10;;;;;;4973468;28;20046;-73
2024/03/28 08:40:11;;;;;;;8.57;2.58;;;17.80;74.90;;;;;;4969844;28;20097;-69
2024/03/28 08:42:39;;;;;;;7.55;2.22;;;17.80;73.20;;;;;;4964764;28;20080;-69
2024/03/28 08:45:09;;;;;;;5.60;2.50;;;18.00;73.10;;;;;;4972787;28;20432;-73
2024/03/28 08:47:35;;;;;;;;;;;18.10;71.30;;;;;;4972689;28;20061;-73
2024/03/28 08:50:04;;;;;;;6.38;2.60;;;18.30;71.80;;;;;;4972820;28;19940;-70
2024/03/28 08:52:33;;;;;;;9.23;2.30;;;18.40;71.50;;;;;;4957187;28;20073;-72
2024/03/28 08:55:00;;;;;;;6.32;2.38;;;18.40;71.70;;;;;;4984648;28;20038;-71
2024/03/28 08:57:28;;;;;;;9.90;2.85;;;18.50;71.40;;;;;;4956612;28;20072;-70
2024/03/28 08:59:54;;;;;;;5.82;2.35;;;18.50;70.50;;;;;;4972784;28;20046;-70
2024/03/28 09:02:24;;;;;;;7.93;2.42;;;18.40;69.60;;;;;;4972387;28;20038;-72
2024/03/28 09:04:52;;;;;;;5.95;3.22;;;18.40;69.40;;;;;;4966130;28;20034;-69
2024/03/28 09:07:19;;;;;;;9.50;2.50;;;18.50;68.60;;;;;;4975312;28;20057;-70
2024/03/28 09:09:45;;;;;;;6.35;2.20;;;18.50;67.70;;;;;;4982758;28;20034;-70
2024/03/28 09:12:12;;;;;;;12.10;3.58;;;18.70;65.90;;;;;;4974917;28;20416;-71
2024/03/28 09:14:38;;;;;;;12.27;2.55;;;18.80;66.60;;;;;;4994091;28;20046;-74
2024/03/28 09:17:05;;;;;;;13.13;2.90;;;18.80;65.10;;;;;;4972037;28;20037;-74
2024/03/28 09:19:33;;;;;;;7.20;2.35;;;18.90;66.10;;;;;;4972793;28;20495;-73
2024/03/28 09:21:59;;;;;;;9.93;2.30;;;19.30;65.50;;;;;;4982449;28;20041;-71
2024/03/28 09:24:26;;;;;;;8.02;2.20;;;19.60;64.50;;;;;;4992799;28;20661;-70
2024/03/28 09:26:52;;;;;;;8.35;3.58;;;19.50;64.10;;;;;;4972343;28;20385;-71
2024/03/28 09:29:22;;;;;;;8.68;2.08;;;19.70;63.40;;;;;;4987976;28;20037;-70
2024/03/28 09:31:49;;;;;;;6.90;2.15;;;20.20;63.10;;;;;;4981217;28;20045;-73
2024/03/28 09:34:16;;;;;;;5.88;2.25;;;20.50;62.90;;;;;;4981685;28;20041;-73
2024/03/28 09:36:42;;;;;;;7.15;2.13;;;20.20;62.10;;;;;;4962424;28;20071;-72
2024/03/28 09:39:11;;;;;;;6.10;2.05;;;20.40;62.10;;;;;;4999425;28;20467;-70
2024/03/28 09:41:46;;;;;;;5.95;2.35;;;20.50;61.60;;;;;;4968891;28;20043;-71
2024/03/28 09:44:20;;;;;;;5.82;2.25;;;20.70;62.10;;;;;;4972452;28;20030;-72
2024/03/28 09:46:52;;;;;;;6.03;1.98;;;21.00;61.00;;;;;;4978060;28;20079;-72
2024/03/28 09:49:23;;;;;;;8.05;2.67;;;21.30;61.40;;;;;;4976869;28;20038;-73
2024/03/28 09:51:55;;;;;;;7.63;1.90;;;21.20;59.40;;;;;;4972054;28;20069;-70
2024/03/28 09:54:22;;;;;;;6.38;1.80;;;21.30;59.50;;;;;;4972201;28;20050;-71
2024/03/28 09:56:49;;;;;;;4.40;2.05;;;21.30;59.10;;;;;;4962065;28;20107;-70
2024/03/28 09:59:15;;;;;;;8.35;2.67;;;21.60;61.60;;;;;;4971735;28;20399;-73
2024/03/28 10:01:44;;;;;;;9.65;2.40;;;21.70;60.40;;;;;;4976073;28;20037;-70
2024/03/28 10:04:13;;;;;;;12.02;2.85;;;21.40;59.60;;;;;;4975158;28;20037;-69
2024/03/28 10:06:50;;;;;;;8.52;2.70;;;21.60;60.00;;;;;;4976611;28;20038;-75
2024/03/28 10:09:19;;;;;;;6.75;2.35;;;22.00;61.20;;;;;;4973274;28;20046;-75
2024/03/28 10:11:46;;;;;;;11.00;2.60;;;22.30;61.00;;;;;;4971887;28;20046;-69
2024/03/28 10:14:22;;;;;;;7.65;2.28;;;22.00;61.40;;;;;;4986026;28;20616;-72
2024/03/28 10:16:49;;;;;;;8.20;2.28;;;22.20;60.20;;;;;;4972548;28;20045;-72
2024/03/28 10:19:21;;;;;;;9.32;2.50;;;21.90;59.30;;;;;;4964723;28;20042;-73
2024/03/28 10:21:47;;;;;;;6.05;2.15;;;21.70;59.60;;;;;;4978201;28;20038;-72
2024/03/28 10:24:18;;;;;;;7.38;2.88;;;21.60;59.70;;;;;;4982529;28;20094;-73
2024/03/28 10:26:45;;;;;;;9.23;2.67;;;21.70;61.00;;;;;;4971542;28;20038;-70
2024/03/28 10:29:16;;;;;;;7.38;1.95;;;21.70;59.20;;;;;;4968295;28;20053;-73
2024/03/28 10:31:42;;;;;;;6.13;1.80;;;21.60;59.00;;;;;;4971969;28;20079;-71
2024/03/28 10:34:18;;;;;;;5.57;2.00;;;21.60;57.80;;;;;;4971679;28;20091;-68
2024/03/28 10:36:49;;;;;;;5.70;2.00;;;21.50;59.20;;;;;;4971770;28;20035;-70
2024/03/28 10:39:15;;;;;;;5.70;1.58;;;21.90;58.80;;;;;;4975890;28;20034;-68
2024/03/28 10:41:43;;;;;;;7.90;1.98;;;22.00;56.80;;;;;;4971727;28;20045;-67
2024/03/28 10:44:10;;;;;;;8.25;2.80;;;22.20;57.40;;;;;;4971553;28;20054;-70
2024/03/28 10:46:40;;;;;;;6.50;1.85;;;21.90;57.00;;;;;;4971211;28;20030;-67
2024/03/28 10:49:06;;;;;;;5.78;2.00;;;21.90;57.70;;;;;;4971555;28;20377;-69
2024/03/28 10:51:37;;;;;;;7.68;1.80;;;21.90;58.00;;;;;;4971258;28;20030;-68
2024/03/28 10:54:40;;;;;;;6.97;1.77;;;22.10;56.70;;;;;;4982588;28;20030;-70
2024/03/28 10:57:09;;;;;;;12.48;2.08;;;22.00;56.60;;;;;;4986142;28;20531;-72
2024/03/28 10:59:39;;;;;;;9.57;1.63;;;21.50;56.10;;;;;;4984440;28;20034;-67
2024/03/28 11:02:06;;;;;;;7.17;1.73;;;21.50;56.80;;;;;;4972367;28;20088;-69
2024/03/28 11:04:33;;;;;;;5.78;1.60;;;21.60;56.60;;;;;;4971739;28;20279;-69
2024/03/28 11:07:01;;;;;;;11.57;2.83;;;21.90;56.50;;;;;;4954848;28;20031;-70
2024/03/28 11:09:28;;;;;;;12.93;2.08;;;22.50;57.00;;;;;;4971477;28;20038;-68
2024/03/28 11:11:56;;;;;;;5.85;1.92;;;22.40;57.40;;;;;;4970829;28;20038;-69
2024/03/28 11:14:23;;;;;;;9.05;2.10;;;23.00;56.20;;;;;;4979468;28;20042;-68
2024/03/28 11:16:49;;;;;;;18.40;2.60;;;23.20;56.70;;;;;;4972696;28;20034;-72
2024/03/28 11:19:18;;;;;;;11.05;2.03;;;23.00;55.20;;;;;;4947199;28;20482;-70
2024/03/28 11:21:51;;;;;;;4.93;1.75;;;23.20;55.30;;;;;;4980607;28;20099;-68
2024/03/28 11:24:19;;;;;;;6.40;1.90;;;22.90;55.00;;;;;;4971358;28;20061;-69
2024/03/28 11:26:53;;;;;;;13.02;2.75;;;22.90;55.40;;;;;;4979192;28;20061;-70
2024/03/28 11:29:27;;;;;;;6.90;1.77;;;23.30;56.60;;;;;;4976763;28;20362;-70
2024/03/28 11:31:57;;;;;;;7.82;2.38;;;23.60;54.50;;;;;;4974258;28;20080;-69
2024/03/28 11:34:28;;;;;;;5.35;1.92;;;23.80;55.00;;;;;;4959735;28;20480;-71
2024/03/28 11:36:57;;;;;;;6.15;1.77;;;23.90;54.80;;;;;;4974258;28;20042;-68
2024/03/28 11:39:27;;;;;;;4.22;1.77;;;23.80;53.20;;;;;;4986372;28;20026;-68
2024/03/28 11:41:53;;;;;;;8.77;1.67;;;23.20;53.60;;;;;;4974805;28;20525;-69
2024/03/28 11:44:20;;;;;;;9.35;2.03;;;23.30;53.90;;;;;;4975068;28;20043;-71
2024/03/28 11:46:47;;;;;;;12.85;2.55;;;23.80;54.90;;;;;;4988599;28;20456;-67
2024/03/28 11:49:19;;;;;;;7.57;2.78;;;24.50;56.10;;;;;;4986557;28;20038;-67
2024/03/28 11:51:46;;;;;;;11.02;1.83;;;24.80;54.50;;;;;;4980768;28;20030;-71
2024/03/28 11:54:17;;;;;;;9.63;2.40;;;24.90;53.20;;;;;;4974468;28;20042;-70
2024/03/28 11:56:48;;;;;;;5.43;1.73;;;24.70;52.70;;;;;;4973245;28;20030;-74
2024/03/28 11:59:21;;;;;;;4.47;1.70;;;24.70;52.00;;;;;;4975920;28;20394;-70
2024/03/28 12:01:48;;;;;;;7.13;2.63;;;25.00;52.40;;;;;;4974761;28;20037;-69
2024/03/28 12:04:22;;;;;;;8.93;2.03;;;25.10;52.70;;;;;;4979306;28;20087;-73
2024/03/28 12:06:48;;;;;;;7.35;2.85;;;24.90;52.30;;;;;;4974130;28;20046;-71
2024/03/28 12:09:15;;;;;;;6.90;2.47;;;25.30;53.60;;;;;;4974802;28;20046;-71
2024/03/28 12:11:41;;;;;;;6.10;1.95;;;24.80;51.90;;;;;;4975010;28;20428;-74
2024/03/28 12:14:09;;;;;;;180.10;13.60;;;24.70;51.70;;;;;;4980861;28;20558;-68
2024/03/28 12:16:35;;;;;;;13.02;2.63;;;24.50;52.30;;;;;;4975094;28;20034;-70
2024/03/28 12:19:07;;;;;;;3.78;1.38;;;23.90;52.20;;;;;;4970774;28;20043;-70
2024/03/28 12:21:34;;;;;;;7.03;2.05;;;26.00;52.00;;;;;;4976421;28;20027;-70
2024/03/28 12:24:00;;;;;;;9.10;2.03;;;25.20;50.20;;;;;;4974353;28;20039;-71
2024/03/28 12:26:27;;;;;;;8.25;1.92;;;23.90;51.90;;;;;;4992040;28;20079;-67
2024/03/28 12:28:55;;;;;;;4.82;1.70;;;23.60;52.90;;;;;;4982191;28;20053;-69
2024/03/28 12:31:25;;;;;;;5.32;1.42;;;25.00;52.70;;;;;;4973810;28;20052;-69
2024/03/28 12:33:51;;;;;;;6.88;1.77;;;29.10;48.90;;;;;;4973579;28;20053;-68
2024/03/28 12:36:18;;;;;;;12.80;1.83;;;31.10;46.60;;;;;;4977901;28;20030;-73
2024/03/28 12:38:48;;;;;;;5.97;1.60;;;29.60;46.70;;;;;;4979777;28;20037;-72
2024/03/28 12:41:19;;;;;;;8.80;1.60;;;30.70;45.70;;;;;;4979152;28;20031;-69
2024/03/28 12:44:03;;;;;;;6.53;1.60;;;32.10;45.50;;;;;;4985935;28;20031;-70
2024/03/28 12:46:32;;;;;;;4.03;1.10;;;32.30;44.90;;;;;;4985760;28;20034;-73
2024/03/28 12:48:59;;;;;;;11.80;1.40;;;30.70;46.00;;;;;;4979074;28;20042;-69
2024/03/28 12:51:25;;;;;;;5.07;1.00;;;29.90;44.40;;;;;;4973191;28;20068;-72
2024/03/28 12:53:51;;;;;;;3.40;1.10;;;31.50;45.00;;;;;;4970281;28;20051;-72